Indianapolis, Indiana
Traffic Map
Current Weather Conditions
Indianapolis, Indiana
Overcast
Overcast
17°
Feels Like: 17°
Wind Chill: 17° Ceiling: 21000
Heat Index: 17° Visibility: 10mi
Dew Point: 12° Wind: 10mph
Humidity: 72% Direction: 40° (NE)
Pressure: 29.88in Gusts: 0mph
Raw Report DataKIND 020754Z 04009KT 10SM FEW065 SCT190 OVC210 17/12 A2988 RMK AO2 SLP113 T01720122
Traffic Incident Summary
Active as of:
Severity:
Category:
InformationThere was an issue retrieving the traffic information for this location. Please try a different location or try again shortly.
Advertisements
Track Severe Weather on mobile